sensor_id;sensor_type;location;lat;lon;timestamp;temperature;humidity
15143;DHT22;7672;50.834;6.286;2023-04-06T00:00:53;6.30;99.90
15143;DHT22;7672;50.834;6.286;2023-04-06T00:03:20;6.30;99.90
15143;DHT22;7672;50.834;6.286;2023-04-06T00:05:47;6.20;99.90
15143;DHT22;7672;50.834;6.286;2023-04-06T00:08:15;6.20;99.90
15143;DHT22;7672;50.834;6.286;2023-04-06T00:10:42;6.20;99.90
15143;DHT22;7672;50.834;6.286;2023-04-06T00:13:09;6.20;99.90
15143;DHT22;7672;50.834;6.286;2023-04-06T00:15:35;6.30;99.90
15143;DHT22;7672;50.834;6.286;2023-04-06T00:18:02;6.20;99.90
15143;DHT22;7672;50.834;6.286;2023-04-06T00:20:30;6.20;99.90
15143;DHT22;7672;50.834;6.286;2023-04-06T00:22:57;6.10;99.90
15143;DHT22;7672;50.834;6.286;2023-04-06T00:25:24;6.10;99.90
15143;DHT22;7672;50.834;6.286;2023-04-06T00:27:50;6.10;99.90
15143;DHT22;7672;50.834;6.286;2023-04-06T00:30:18;6.10;99.90
15143;DHT22;7672;50.834;6.286;2023-04-06T00:32:44;6.00;99.90
15143;DHT22;7672;50.834;6.286;2023-04-06T00:35:11;6.00;99.90
15143;DHT22;7672;50.834;6.286;2023-04-06T00:37:38;6.00;99.90
15143;DHT22;7672;50.834;6.286;2023-04-06T00:40:06;6.00;99.90
15143;DHT22;7672;50.834;6.286;2023-04-06T00:42:33;6.00;99.90
15143;DHT22;7672;50.834;6.286;2023-04-06T00:45:00;6.00;99.90
15143;DHT22;7672;50.834;6.286;2023-04-06T00:47:28;5.90;99.90
15143;DHT22;7672;50.834;6.286;2023-04-06T00:49:56;5.90;99.90
15143;DHT22;7672;50.834;6.286;2023-04-06T00:52:23;5.90;99.90
15143;DHT22;7672;50.834;6.286;2023-04-06T00:54:50;5.90;99.90
15143;DHT22;7672;50.834;6.286;2023-04-06T00:57:17;5.90;99.90
15143;DHT22;7672;50.834;6.286;2023-04-06T00:59:45;5.90;99.90
15143;DHT22;7672;50.834;6.286;2023-04-06T01:02:12;5.80;99.90
15143;DHT22;7672;50.834;6.286;2023-04-06T01:04:39;5.80;99.90
15143;DHT22;7672;50.834;6.286;2023-04-06T01:07:06;5.80;99.90
15143;DHT22;7672;50.834;6.286;2023-04-06T01:09:33;5.80;99.90
15143;DHT22;7672;50.834;6.286;2023-04-06T01:12:00;5.80;99.90
15143;DHT22;7672;50.834;6.286;2023-04-06T01:14:27;5.80;99.90
15143;DHT22;7672;50.834;6.286;2023-04-06T01:16:54;5.70;99.90
15143;DHT22;7672;50.834;6.286;2023-04-06T01:19:24;5.70;99.90
15143;DHT22;7672;50.834;6.286;2023-04-06T01:21:51;5.70;99.90
15143;DHT22;7672;50.834;6.286;2023-04-06T01:24:20;5.70;99.90
15143;DHT22;7672;50.834;6.286;2023-04-06T01:26:47;5.60;99.90
15143;DHT22;7672;50.834;6.286;2023-04-06T01:29:14;5.60;99.90
15143;DHT22;7672;50.834;6.286;2023-04-06T01:31:41;5.60;99.90
15143;DHT22;7672;50.834;6.286;2023-04-06T01:34:08;5.60;99.90
15143;DHT22;7672;50.834;6.286;2023-04-06T01:36:34;5.60;99.90
15143;DHT22;7672;50.834;6.286;2023-04-06T01:39:01;5.60;99.90
15143;DHT22;7672;50.834;6.286;2023-04-06T01:41:31;5.60;99.90
15143;DHT22;7672;50.834;6.286;2023-04-06T01:43:58;5.50;99.90
15143;DHT22;7672;50.834;6.286;2023-04-06T01:46:24;5.50;99.90
15143;DHT22;7672;50.834;6.286;2023-04-06T01:48:51;5.50;99.90
15143;DHT22;7672;50.834;6.286;2023-04-06T01:51:18;5.50;99.90
15143;DHT22;7672;50.834;6.286;2023-04-06T01:53:45;5.50;99.90
15143;DHT22;7672;50.834;6.286;2023-04-06T01:56:12;5.40;99.90
15143;DHT22;7672;50.834;6.286;2023-04-06T01:58:39;5.40;99.90
15143;DHT22;7672;50.834;6.286;2023-04-06T02:01:06;5.40;99.90
15143;DHT22;7672;50.834;6.286;2023-04-06T02:03:32;5.40;99.90
15143;DHT22;7672;50.834;6.286;2023-04-06T02:05:59;5.40;99.90
15143;DHT22;7672;50.834;6.286;2023-04-06T02:08:26;5.30;99.90
15143;DHT22;7672;50.834;6.286;2023-04-06T02:10:53;5.30;99.90
15143;DHT22;7672;50.834;6.286;2023-04-06T02:13:20;5.30;99.90
15143;DHT22;7672;50.834;6.286;2023-04-06T02:15:46;5.30;99.90
15143;DHT22;7672;50.834;6.286;2023-04-06T02:18:13;5.30;99.90
15143;DHT22;7672;50.834;6.286;2023-04-06T02:20:40;5.30;99.90
15143;DHT22;7672;50.834;6.286;2023-04-06T02:23:07;5.30;99.90
15143;DHT22;7672;50.834;6.286;2023-04-06T02:25:33;5.20;99.90
15143;DHT22;7672;50.834;6.286;2023-04-06T02:28:01;5.20;99.90
15143;DHT22;7672;50.834;6.286;2023-04-06T02:30:28;5.20;99.90
15143;DHT22;7672;50.834;6.286;2023-04-06T02:32:55;5.20;99.90
15143;DHT22;7672;50.834;6.286;2023-04-06T02:35:24;5.20;99.90
15143;DHT22;7672;50.834;6.286;2023-04-06T02:37:51;5.20;99.90
15143;DHT22;7672;50.834;6.286;2023-04-06T02:40:18;5.20;99.90
15143;DHT22;7672;50.834;6.286;2023-04-06T02:42:45;5.20;99.90
15143;DHT22;7672;50.834;6.286;2023-04-06T02:45:12;5.20;99.90
15143;DHT22;7672;50.834;6.286;2023-04-06T02:47:38;5.20;99.90
15143;DHT22;7672;50.834;6.286;2023-04-06T02:50:05;5.20;99.90
15143;DHT22;7672;50.834;6.286;2023-04-06T02:52:32;5.10;99.90
15143;DHT22;7672;50.834;6.286;2023-04-06T02:54:59;5.10;99.90
15143;DHT22;7672;50.834;6.286;2023-04-06T02:57:26;5.10;99.90
15143;DHT22;7672;50.834;6.286;2023-04-06T02:59:53;5.10;99.90
15143;DHT22;7672;50.834;6.286;2023-04-06T03:02:20;5.10;99.90
15143;DHT22;7672;50.834;6.286;2023-04-06T03:04:47;5.10;99.90
15143;DHT22;7672;50.834;6.286;2023-04-06T03:07:14;5.00;99.90
15143;DHT22;7672;50.834;6.286;2023-04-06T03:09:40;5.00;99.90
15143;DHT22;7672;50.834;6.286;2023-04-06T03:12:07;5.00;99.90
15143;DHT22;7672;50.834;6.286;2023-04-06T03:14:35;5.00;99.90
15143;DHT22;7672;50.834;6.286;2023-04-06T03:17:02;5.00;99.90
15143;DHT22;7672;50.834;6.286;2023-04-06T03:19:29;5.00;99.90
15143;DHT22;7672;50.834;6.286;2023-04-06T03:21:56;5.00;99.90
15143;DHT22;7672;50.834;6.286;2023-04-06T03:24:22;5.00;99.90
15143;DHT22;7672;50.834;6.286;2023-04-06T03:26:49;5.00;99.90
15143;DHT22;7672;50.834;6.286;2023-04-06T03:29:16;5.00;99.90
15143;DHT22;7672;50.834;6.286;2023-04-06T03:31:43;5.00;99.90
15143;DHT22;7672;50.834;6.286;2023-04-06T03:34:10;5.00;99.90
15143;DHT22;7672;50.834;6.286;2023-04-06T03:36:36;5.00;99.90
15143;DHT22;7672;50.834;6.286;2023-04-06T03:39:04;5.00;99.90
15143;DHT22;7672;50.834;6.286;2023-04-06T03:41:31;5.00;99.90
15143;DHT22;7672;50.834;6.286;2023-04-06T03:43:58;5.00;99.90
15143;DHT22;7672;50.834;6.286;2023-04-06T03:46:25;4.90;99.90
15143;DHT22;7672;50.834;6.286;2023-04-06T03:48:52;5.00;99.90
15143;DHT22;7672;50.834;6.286;2023-04-06T03:51:19;5.00;99.90
15143;DHT22;7672;50.834;6.286;2023-04-06T03:53:45;5.00;99.90
15143;DHT22;7672;50.834;6.286;2023-04-06T03:56:12;5.00;99.90
15143;DHT22;7672;50.834;6.286;2023-04-06T03:58:39;5.00;99.90
15143;DHT22;7672;50.834;6.286;2023-04-06T04:01:06;5.00;99.90
15143;DHT22;7672;50.834;6.286;2023-04-06T04:03:33;5.00;99.90
15143;DHT22;7672;50.834;6.286;2023-04-06T04:06:00;5.00;99.90
15143;DHT22;7672;50.834;6.286;2023-04-06T04:08:27;5.00;99.90
15143;DHT22;7672;50.834;6.286;2023-04-06T04:10:53;5.00;99.90
15143;DHT22;7672;50.834;6.286;2023-04-06T04:13:20;5.10;99.90
15143;DHT22;7672;50.834;6.286;2023-04-06T04:15:47;5.10;99.90
15143;DHT22;7672;50.834;6.286;2023-04-06T04:18:14;5.10;99.90
15143;DHT22;7672;50.834;6.286;2023-04-06T04:20:41;5.10;99.90
15143;DHT22;7672;50.834;6.286;2023-04-06T04:23:08;5.20;99.90
15143;DHT22;7672;50.834;6.286;2023-04-06T04:25:34;5.20;99.90
15143;DHT22;7672;50.834;6.286;2023-04-06T04:28:02;5.20;99.90
15143;DHT22;7672;50.834;6.286;2023-04-06T04:30:29;5.30;99.90
15143;DHT22;7672;50.834;6.286;2023-04-06T04:32:56;5.30;99.90
15143;DHT22;7672;50.834;6.286;2023-04-06T04:35:23;5.30;99.90
15143;DHT22;7672;50.834;6.286;2023-04-06T04:37:50;5.30;99.90
15143;DHT22;7672;50.834;6.286;2023-04-06T04:40:16;5.40;99.90
15143;DHT22;7672;50.834;6.286;2023-04-06T04:42:43;5.40;99.90
15143;DHT22;7672;50.834;6.286;2023-04-06T04:45:10;5.40;99.90
15143;DHT22;7672;50.834;6.286;2023-04-06T04:47:38;5.50;99.90
15143;DHT22;7672;50.834;6.286;2023-04-06T04:50:05;5.50;99.90
15143;DHT22;7672;50.834;6.286;2023-04-06T04:52:32;5.50;99.90
15143;DHT22;7672;50.834;6.286;2023-04-06T04:54:59;5.60;99.90
15143;DHT22;7672;50.834;6.286;2023-04-06T04:57:25;5.60;99.90
15143;DHT22;7672;50.834;6.286;2023-04-06T04:59:52;5.60;99.90
15143;DHT22;7672;50.834;6.286;2023-04-06T05:02:22;5.70;99.90
15143;DHT22;7672;50.834;6.286;2023-04-06T05:04:49;5.70;99.90
15143;DHT22;7672;50.834;6.286;2023-04-06T05:07:15;5.70;99.90
15143;DHT22;7672;50.834;6.286;2023-04-06T05:09:45;5.80;99.90
15143;DHT22;7672;50.834;6.286;2023-04-06T05:12:12;5.80;99.90
15143;DHT22;7672;50.834;6.286;2023-04-06T05:14:39;5.90;99.90
15143;DHT22;7672;50.834;6.286;2023-04-06T05:17:06;5.90;99.90
15143;DHT22;7672;50.834;6.286;2023-04-06T05:19:32;6.00;99.90
15143;DHT22;7672;50.834;6.286;2023-04-06T05:21:59;6.00;99.90
15143;DHT22;7672;50.834;6.286;2023-04-06T05:24:26;6.10;99.90
15143;DHT22;7672;50.834;6.286;2023-04-06T05:26:53;6.20;99.90
15143;DHT22;7672;50.834;6.286;2023-04-06T05:29:20;6.30;99.90
15143;DHT22;7672;50.834;6.286;2023-04-06T05:31:47;6.30;99.90
15143;DHT22;7672;50.834;6.286;2023-04-06T05:34:14;6.40;99.90
15143;DHT22;7672;50.834;6.286;2023-04-06T05:36:41;6.50;99.90
15143;DHT22;7672;50.834;6.286;2023-04-06T05:39:08;6.60;99.90
15143;DHT22;7672;50.834;6.286;2023-04-06T05:41:35;6.70;99.90
15143;DHT22;7672;50.834;6.286;2023-04-06T05:44:02;6.80;99.90
15143;DHT22;7672;50.834;6.286;2023-04-06T05:46:29;6.90;99.90
15143;DHT22;7672;50.834;6.286;2023-04-06T05:48:56;7.10;99.90
15143;DHT22;7672;50.834;6.286;2023-04-06T05:51:23;7.20;99.90
15143;DHT22;7672;50.834;6.286;2023-04-06T05:53:49;7.30;99.90
15143;DHT22;7672;50.834;6.286;2023-04-06T05:56:16;7.30;99.90
15143;DHT22;7672;50.834;6.286;2023-04-06T05:58:43;7.40;99.90
15143;DHT22;7672;50.834;6.286;2023-04-06T06:01:10;7.50;99.90
15143;DHT22;7672;50.834;6.286;2023-04-06T06:03:37;7.60;99.90
15143;DHT22;7672;50.834;6.286;2023-04-06T06:06:04;7.70;99.90
15143;DHT22;7672;50.834;6.286;2023-04-06T06:08:31;7.80;99.90
15143;DHT22;7672;50.834;6.286;2023-04-06T06:10:58;7.90;99.90
15143;DHT22;7672;50.834;6.286;2023-04-06T06:13:25;8.00;99.90
15143;DHT22;7672;50.834;6.286;2023-04-06T06:15:52;8.10;99.90
15143;DHT22;7672;50.834;6.286;2023-04-06T06:18:19;8.00;99.90
15143;DHT22;7672;50.834;6.286;2023-04-06T06:20:45;8.30;99.90
15143;DHT22;7672;50.834;6.286;2023-04-06T06:23:12;8.40;99.90
15143;DHT22;7672;50.834;6.286;2023-04-06T06:25:39;8.60;99.90
15143;DHT22;7672;50.834;6.286;2023-04-06T06:28:06;8.70;99.90
15143;DHT22;7672;50.834;6.286;2023-04-06T06:30:33;8.80;99.90
15143;DHT22;7672;50.834;6.286;2023-04-06T06:32:59;8.90;99.90
15143;DHT22;7672;50.834;6.286;2023-04-06T06:35:26;9.10;99.90
15143;DHT22;7672;50.834;6.286;2023-04-06T06:37:53;9.20;99.90
15143;DHT22;7672;50.834;6.286;2023-04-06T06:40:20;9.40;99.90
15143;DHT22;7672;50.834;6.286;2023-04-06T06:42:50;9.50;99.90
15143;DHT22;7672;50.834;6.286;2023-04-06T06:45:18;9.70;99.90
15143;DHT22;7672;50.834;6.286;2023-04-06T06:47:44;9.90;99.90
15143;DHT22;7672;50.834;6.286;2023-04-06T06:50:12;10.10;99.90
15143;DHT22;7672;50.834;6.286;2023-04-06T06:52:39;10.20;99.90
15143;DHT22;7672;50.834;6.286;2023-04-06T06:55:08;10.40;99.90
15143;DHT22;7672;50.834;6.286;2023-04-06T06:57:36;10.60;99.90
15143;DHT22;7672;50.834;6.286;2023-04-06T07:00:03;10.70;99.90
15143;DHT22;7672;50.834;6.286;2023-04-06T07:02:31;10.90;99.90
15143;DHT22;7672;50.834;6.286;2023-04-06T07:05:00;11.10;99.90
15143;DHT22;7672;50.834;6.286;2023-04-06T07:07:28;11.30;99.90
15143;DHT22;7672;50.834;6.286;2023-04-06T07:09:55;11.50;99.90
15143;DHT22;7672;50.834;6.286;2023-04-06T07:12:22;11.60;99.90
15143;DHT22;7672;50.834;6.286;2023-04-06T07:14:49;11.90;99.90
15143;DHT22;7672;50.834;6.286;2023-04-06T07:17:15;12.10;99.90
15143;DHT22;7672;50.834;6.286;2023-04-06T07:19:43;12.20;99.90
15143;DHT22;7672;50.834;6.286;2023-04-06T07:22:10;12.40;99.90
15143;DHT22;7672;50.834;6.286;2023-04-06T07:24:37;12.60;99.90
15143;DHT22;7672;50.834;6.286;2023-04-06T07:27:03;12.80;99.90
15143;DHT22;7672;50.834;6.286;2023-04-06T07:29:30;12.90;99.90
15143;DHT22;7672;50.834;6.286;2023-04-06T07:31:57;13.10;99.90
15143;DHT22;7672;50.834;6.286;2023-04-06T07:34:24;13.20;99.90
15143;DHT22;7672;50.834;6.286;2023-04-06T07:36:51;13.40;99.90
15143;DHT22;7672;50.834;6.286;2023-04-06T07:39:20;13.50;99.90
15143;DHT22;7672;50.834;6.286;2023-04-06T07:41:47;13.70;99.90
15143;DHT22;7672;50.834;6.286;2023-04-06T07:44:13;13.90;99.90
15143;DHT22;7672;50.834;6.286;2023-04-06T07:46:40;14.10;99.90
15143;DHT22;7672;50.834;6.286;2023-04-06T07:49:07;14.40;99.90
15143;DHT22;7672;50.834;6.286;2023-04-06T07:51:39;14.60;99.90
15143;DHT22;7672;50.834;6.286;2023-04-06T07:54:06;14.80;99.90
15143;DHT22;7672;50.834;6.286;2023-04-06T07:56:33;15.00;99.90
15143;DHT22;7672;50.834;6.286;2023-04-06T07:59:00;15.20;99.90
15143;DHT22;7672;50.834;6.286;2023-04-06T08:01:28;15.40;99.90
15143;DHT22;7672;50.834;6.286;2023-04-06T08:03:56;15.50;99.90
15143;DHT22;7672;50.834;6.286;2023-04-06T08:06:23;15.60;99.90
15143;DHT22;7672;50.834;6.286;2023-04-06T08:08:51;15.80;99.90
15143;DHT22;7672;50.834;6.286;2023-04-06T08:11:17;15.90;99.90
15143;DHT22;7672;50.834;6.286;2023-04-06T08:13:44;15.90;99.90
15143;DHT22;7672;50.834;6.286;2023-04-06T08:16:11;16.00;99.90
15143;DHT22;7672;50.834;6.286;2023-04-06T08:18:38;16.10;99.90
15143;DHT22;7672;50.834;6.286;2023-04-06T08:21:05;16.10;99.90
15143;DHT22;7672;50.834;6.286;2023-04-06T08:23:32;16.20;99.90
15143;DHT22;7672;50.834;6.286;2023-04-06T08:25:59;16.30;99.90
15143;DHT22;7672;50.834;6.286;2023-04-06T08:28:26;16.40;99.90
15143;DHT22;7672;50.834;6.286;2023-04-06T08:30:52;16.50;99.90
15143;DHT22;7672;50.834;6.286;2023-04-06T08:33:19;16.50;99.90
15143;DHT22;7672;50.834;6.286;2023-04-06T08:35:46;16.60;99.90
15143;DHT22;7672;50.834;6.286;2023-04-06T08:38:13;16.70;99.30
15143;DHT22;7672;50.834;6.286;2023-04-06T08:40:40;16.70;99.10
15143;DHT22;7672;50.834;6.286;2023-04-06T08:43:10;16.70;98.80
15143;DHT22;7672;50.834;6.286;2023-04-06T08:45:41;16.80;99.10
15143;DHT22;7672;50.834;6.286;2023-04-06T08:48:09;16.80;98.50
15143;DHT22;7672;50.834;6.286;2023-04-06T08:50:38;16.90;98.50
15143;DHT22;7672;50.834;6.286;2023-04-06T08:53:06;16.90;98.50
15143;DHT22;7672;50.834;6.286;2023-04-06T08:55:34;17.00;98.10
15143;DHT22;7672;50.834;6.286;2023-04-06T08:58:02;17.00;98.20
15143;DHT22;7672;50.834;6.286;2023-04-06T09:00:30;17.10;97.70
15143;DHT22;7672;50.834;6.286;2023-04-06T09:03:01;17.20;97.10
15143;DHT22;7672;50.834;6.286;2023-04-06T09:05:28;17.30;97.60
15143;DHT22;7672;50.834;6.286;2023-04-06T09:07:55;17.30;96.90
15143;DHT22;7672;50.834;6.286;2023-04-06T09:10:22;17.40;96.90
15143;DHT22;7672;50.834;6.286;2023-04-06T09:12:51;17.50;96.80
15143;DHT22;7672;50.834;6.286;2023-04-06T09:15:29;17.60;96.00
15143;DHT22;7672;50.834;6.286;2023-04-06T09:17:56;17.70;95.30
15143;DHT22;7672;50.834;6.286;2023-04-06T09:20:24;17.70;95.00
15143;DHT22;7672;50.834;6.286;2023-04-06T09:22:53;17.80;94.70
15143;DHT22;7672;50.834;6.286;2023-04-06T09:25:22;17.80;94.90
15143;DHT22;7672;50.834;6.286;2023-04-06T09:28:03;17.80;94.70
15143;DHT22;7672;50.834;6.286;2023-04-06T09:30:31;17.90;94.60
15143;DHT22;7672;50.834;6.286;2023-04-06T09:32:57;17.90;94.60
15143;DHT22;7672;50.834;6.286;2023-04-06T09:35:26;18.10;94.40
15143;DHT22;7672;50.834;6.286;2023-04-06T09:37:53;18.10;94.80
15143;DHT22;7672;50.834;6.286;2023-04-06T09:40:21;18.30;94.20
15143;DHT22;7672;50.834;6.286;2023-04-06T09:42:50;18.40;93.50
15143;DHT22;7672;50.834;6.286;2023-04-06T09:45:18;18.40;93.40
15143;DHT22;7672;50.834;6.286;2023-04-06T09:47:47;18.50;94.10
15143;DHT22;7672;50.834;6.286;2023-04-06T09:50:15;18.60;93.20
15143;DHT22;7672;50.834;6.286;2023-04-06T09:52:48;18.70;92.90
15143;DHT22;7672;50.834;6.286;2023-04-06T09:55:36;18.70;92.30
15143;DHT22;7672;50.834;6.286;2023-04-06T09:58:13;18.80;92.80
15143;DHT22;7672;50.834;6.286;2023-04-06T10:00:59;18.90;92.70
15143;DHT22;7672;50.834;6.286;2023-04-06T10:03:55;19.00;92.60
15143;DHT22;7672;50.834;6.286;2023-04-06T10:06:31;19.00;92.60
15143;DHT22;7672;50.834;6.286;2023-04-06T10:09:03;19.00;92.70
15143;DHT22;7672;50.834;6.286;2023-04-06T10:11:31;19.00;92.40
15143;DHT22;7672;50.834;6.286;2023-04-06T10:13:58;19.00;92.20
15143;DHT22;7672;50.834;6.286;2023-04-06T10:16:26;19.10;91.80
15143;DHT22;7672;50.834;6.286;2023-04-06T10:19:00;19.10;91.80
15143;DHT22;7672;50.834;6.286;2023-04-06T10:21:33;19.00;91.30
15143;DHT22;7672;50.834;6.286;2023-04-06T10:24:07;19.10;90.90
15143;DHT22;7672;50.834;6.286;2023-04-06T10:26:39;19.10;91.20
15143;DHT22;7672;50.834;6.286;2023-04-06T10:29:06;19.00;91.50
15143;DHT22;7672;50.834;6.286;2023-04-06T10:31:39;19.10;91.30
15143;DHT22;7672;50.834;6.286;2023-04-06T10:34:09;19.10;91.10
15143;DHT22;7672;50.834;6.286;2023-04-06T10:36:36;19.10;91.50
15143;DHT22;7672;50.834;6.286;2023-04-06T10:39:05;19.20;91.20
15143;DHT22;7672;50.834;6.286;2023-04-06T10:41:43;19.20;91.70
15143;DHT22;7672;50.834;6.286;2023-04-06T10:44:23;19.20;91.50
15143;DHT22;7672;50.834;6.286;2023-04-06T10:46:56;19.10;91.80
15143;DHT22;7672;50.834;6.286;2023-04-06T10:49:25;19.30;91.70
15143;DHT22;7672;50.834;6.286;2023-04-06T10:51:56;19.40;91.60
15143;DHT22;7672;50.834;6.286;2023-04-06T10:54:25;19.50;91.50
15143;DHT22;7672;50.834;6.286;2023-04-06T10:56:53;19.50;91.50
15143;DHT22;7672;50.834;6.286;2023-04-06T10:59:21;19.60;91.40
15143;DHT22;7672;50.834;6.286;2023-04-06T11:01:48;19.60;91.00
15143;DHT22;7672;50.834;6.286;2023-04-06T11:04:20;19.70;91.00
15143;DHT22;7672;50.834;6.286;2023-04-06T11:06:48;19.60;91.00
15143;DHT22;7672;50.834;6.286;2023-04-06T11:09:26;19.60;91.00
15143;DHT22;7672;50.834;6.286;2023-04-06T11:11:55;19.50;90.80
15143;DHT22;7672;50.834;6.286;2023-04-06T11:14:23;19.50;91.50
15143;DHT22;7672;50.834;6.286;2023-04-06T11:16:50;19.40;91.50
15143;DHT22;7672;50.834;6.286;2023-04-06T11:19:17;19.40;92.10
15143;DHT22;7672;50.834;6.286;2023-04-06T11:21:46;19.40;92.00
15143;DHT22;7672;50.834;6.286;2023-04-06T11:24:24;19.40;92.30
15143;DHT22;7672;50.834;6.286;2023-04-06T11:26:52;19.30;91.60
15143;DHT22;7672;50.834;6.286;2023-04-06T11:29:22;19.20;91.70
15143;DHT22;7672;50.834;6.286;2023-04-06T11:31:52;19.10;90.50
15143;DHT22;7672;50.834;6.286;2023-04-06T11:34:22;19.00;90.20
15143;DHT22;7672;50.834;6.286;2023-04-06T11:36:58;18.80;89.30
15143;DHT22;7672;50.834;6.286;2023-04-06T11:39:28;18.70;90.90
15143;DHT22;7672;50.834;6.286;2023-04-06T11:41:59;18.50;90.90
15143;DHT22;7672;50.834;6.286;2023-04-06T11:44:38;18.30;91.50
15143;DHT22;7672;50.834;6.286;2023-04-06T11:47:08;18.40;91.60
15143;DHT22;7672;50.834;6.286;2023-04-06T11:49:38;18.30;92.00
15143;DHT22;7672;50.834;6.286;2023-04-06T11:52:26;18.20;92.20
15143;DHT22;7672;50.834;6.286;2023-04-06T11:54:54;18.10;92.30
15143;DHT22;7672;50.834;6.286;2023-04-06T11:57:23;18.10;92.40
15143;DHT22;7672;50.834;6.286;2023-04-06T11:59:55;18.10;92.30
15143;DHT22;7672;50.834;6.286;2023-04-06T12:02:21;17.90;92.20
15143;DHT22;7672;50.834;6.286;2023-04-06T12:04:48;17.80;92.70
15143;DHT22;7672;50.834;6.286;2023-04-06T12:07:15;17.90;92.40
15143;DHT22;7672;50.834;6.286;2023-04-06T12:09:43;17.60;92.60
15143;DHT22;7672;50.834;6.286;2023-04-06T12:12:10;17.40;93.20
15143;DHT22;7672;50.834;6.286;2023-04-06T12:14:36;17.30;92.50
15143;DHT22;7672;50.834;6.286;2023-04-06T12:17:03;17.10;93.20
15143;DHT22;7672;50.834;6.286;2023-04-06T12:19:30;16.90;93.40
15143;DHT22;7672;50.834;6.286;2023-04-06T12:21:58;16.80;94.10
15143;DHT22;7672;50.834;6.286;2023-04-06T12:24:25;16.70;94.60
15143;DHT22;7672;50.834;6.286;2023-04-06T12:26:52;16.70;94.90
15143;DHT22;7672;50.834;6.286;2023-04-06T12:29:32;16.60;95.10
15143;DHT22;7672;50.834;6.286;2023-04-06T12:31:59;16.50;95.80
15143;DHT22;7672;50.834;6.286;2023-04-06T12:34:27;16.40;97.10
15143;DHT22;7672;50.834;6.286;2023-04-06T12:36:54;16.30;96.70
15143;DHT22;7672;50.834;6.286;2023-04-06T12:39:22;16.30;96.90
15143;DHT22;7672;50.834;6.286;2023-04-06T12:41:50;16.20;97.70
15143;DHT22;7672;50.834;6.286;2023-04-06T12:44:16;16.10;97.60
15143;DHT22;7672;50.834;6.286;2023-04-06T12:46:43;15.90;97.50
15143;DHT22;7672;50.834;6.286;2023-04-06T12:49:10;15.70;98.20
15143;DHT22;7672;50.834;6.286;2023-04-06T12:51:37;15.50;98.80
15143;DHT22;7672;50.834;6.286;2023-04-06T12:54:04;15.40;98.90
15143;DHT22;7672;50.834;6.286;2023-04-06T12:56:32;15.20;99.90
15143;DHT22;7672;50.834;6.286;2023-04-06T12:58:59;15.00;99.90
15143;DHT22;7672;50.834;6.286;2023-04-06T13:01:26;14.90;99.90
15143;DHT22;7672;50.834;6.286;2023-04-06T13:03:56;14.80;99.90
15143;DHT22;7672;50.834;6.286;2023-04-06T13:06:24;14.60;99.90
15143;DHT22;7672;50.834;6.286;2023-04-06T13:08:54;14.50;99.90
15143;DHT22;7672;50.834;6.286;2023-04-06T13:11:21;14.40;99.90
15143;DHT22;7672;50.834;6.286;2023-04-06T13:13:52;14.20;99.90
15143;DHT22;7672;50.834;6.286;2023-04-06T13:16:19;14.10;99.90
15143;DHT22;7672;50.834;6.286;2023-04-06T13:18:47;14.00;99.90
15143;DHT22;7672;50.834;6.286;2023-04-06T13:21:17;13.90;99.90
15143;DHT22;7672;50.834;6.286;2023-04-06T13:23:44;13.80;99.90
15143;DHT22;7672;50.834;6.286;2023-04-06T13:26:11;13.80;99.90
15143;DHT22;7672;50.834;6.286;2023-04-06T13:28:39;13.60;99.90
15143;DHT22;7672;50.834;6.286;2023-04-06T13:31:07;13.50;99.90
15143;DHT22;7672;50.834;6.286;2023-04-06T13:33:34;13.50;99.90
15143;DHT22;7672;50.834;6.286;2023-04-06T13:36:02;13.40;99.90
15143;DHT22;7672;50.834;6.286;2023-04-06T13:38:29;13.30;99.90
15143;DHT22;7672;50.834;6.286;2023-04-06T13:40:56;13.20;99.90
15143;DHT22;7672;50.834;6.286;2023-04-06T13:43:24;13.10;99.90
15143;DHT22;7672;50.834;6.286;2023-04-06T13:45:54;13.00;99.90
15143;DHT22;7672;50.834;6.286;2023-04-06T13:48:22;13.00;99.90
15143;DHT22;7672;50.834;6.286;2023-04-06T13:50:49;12.90;99.90
15143;DHT22;7672;50.834;6.286;2023-04-06T13:53:16;12.80;99.90
15143;DHT22;7672;50.834;6.286;2023-04-06T13:55:43;12.70;99.90
15143;DHT22;7672;50.834;6.286;2023-04-06T13:58:18;12.60;99.90
15143;DHT22;7672;50.834;6.286;2023-04-06T14:00:44;12.50;99.90
15143;DHT22;7672;50.834;6.286;2023-04-06T14:03:11;12.50;99.90
15143;DHT22;7672;50.834;6.286;2023-04-06T14:05:38;12.40;99.90
15143;DHT22;7672;50.834;6.286;2023-04-06T14:08:05;12.30;99.90
15143;DHT22;7672;50.834;6.286;2023-04-06T14:10:37;12.30;99.90
15143;DHT22;7672;50.834;6.286;2023-04-06T14:13:07;12.30;99.90
15143;DHT22;7672;50.834;6.286;2023-04-06T14:15:34;12.20;99.90
15143;DHT22;7672;50.834;6.286;2023-04-06T14:18:01;12.20;99.90
15143;DHT22;7672;50.834;6.286;2023-04-06T14:20:31;12.20;99.90
15143;DHT22;7672;50.834;6.286;2023-04-06T14:23:02;12.20;99.90
15143;DHT22;7672;50.834;6.286;2023-04-06T14:25:30;12.20;99.90
15143;DHT22;7672;50.834;6.286;2023-04-06T14:27:58;12.20;99.90
15143;DHT22;7672;50.834;6.286;2023-04-06T14:30:25;12.30;99.90
15143;DHT22;7672;50.834;6.286;2023-04-06T14:32:52;12.30;99.90
15143;DHT22;7672;50.834;6.286;2023-04-06T14:35:19;12.20;99.90
15143;DHT22;7672;50.834;6.286;2023-04-06T14:37:45;12.30;99.90
15143;DHT22;7672;50.834;6.286;2023-04-06T14:40:13;12.30;99.90
15143;DHT22;7672;50.834;6.286;2023-04-06T14:42:40;12.20;99.90
15143;DHT22;7672;50.834;6.286;2023-04-06T14:45:07;12.20;99.90
15143;DHT22;7672;50.834;6.286;2023-04-06T14:47:34;12.20;99.90
15143;DHT22;7672;50.834;6.286;2023-04-06T14:50:00;12.10;99.90
15143;DHT22;7672;50.834;6.286;2023-04-06T14:52:27;12.10;99.90
15143;DHT22;7672;50.834;6.286;2023-04-06T14:54:57;12.00;99.90
15143;DHT22;7672;50.834;6.286;2023-04-06T14:57:24;12.00;99.90
15143;DHT22;7672;50.834;6.286;2023-04-06T14:59:53;12.00;99.90
15143;DHT22;7672;50.834;6.286;2023-04-06T15:02:20;11.90;99.90
15143;DHT22;7672;50.834;6.286;2023-04-06T15:04:47;11.90;99.90
15143;DHT22;7672;50.834;6.286;2023-04-06T15:07:14;11.90;99.90
15143;DHT22;7672;50.834;6.286;2023-04-06T15:09:41;11.90;99.90
15143;DHT22;7672;50.834;6.286;2023-04-06T15:12:08;11.90;99.90
15143;DHT22;7672;50.834;6.286;2023-04-06T15:14:35;12.30;99.90
15143;DHT22;7672;50.834;6.286;2023-04-06T15:17:02;11.90;99.90
15143;DHT22;7672;50.834;6.286;2023-04-06T15:19:28;11.90;99.90
15143;DHT22;7672;50.834;6.286;2023-04-06T15:21:55;11.90;99.90
15143;DHT22;7672;50.834;6.286;2023-04-06T15:24:24;11.80;99.90
15143;DHT22;7672;50.834;6.286;2023-04-06T15:26:51;11.80;99.90
15143;DHT22;7672;50.834;6.286;2023-04-06T15:29:17;11.80;99.90
15143;DHT22;7672;50.834;6.286;2023-04-06T15:31:44;11.80;99.90
15143;DHT22;7672;50.834;6.286;2023-04-06T15:34:11;11.80;99.90
15143;DHT22;7672;50.834;6.286;2023-04-06T15:36:38;11.80;99.90
15143;DHT22;7672;50.834;6.286;2023-04-06T15:39:05;11.70;99.90
15143;DHT22;7672;50.834;6.286;2023-04-06T15:41:35;11.70;99.90
15143;DHT22;7672;50.834;6.286;2023-04-06T15:44:02;11.70;99.90
15143;DHT22;7672;50.834;6.286;2023-04-06T15:46:30;11.70;99.90
15143;DHT22;7672;50.834;6.286;2023-04-06T15:48:56;11.70;99.90
15143;DHT22;7672;50.834;6.286;2023-04-06T15:51:23;11.70;99.90
15143;DHT22;7672;50.834;6.286;2023-04-06T15:53:51;11.70;99.90
15143;DHT22;7672;50.834;6.286;2023-04-06T15:56:18;11.70;99.90